createdAt,value
2019-01-19T00:02:36.317Z,100292.45
2019-01-19T00:06:12.477Z,100287.91
2019-01-19T00:09:19.148Z,100285.44
2019-01-19T00:12:18.538Z,100287.81
2019-01-19T00:15:30.035Z,100285.19
2019-01-19T00:18:38.532Z,100282.05
2019-01-19T00:21:54.284Z,100279.67
2019-01-19T00:24:53.687Z,100278.84
2019-01-19T00:27:34.631Z,100274.14
2019-01-19T00:30:57.289Z,100271.20
2019-01-19T00:34:17.888Z,100270.70
2019-01-19T00:37:10.731Z,100270.43
2019-01-19T00:40:21.018Z,100269.18
2019-01-19T00:43:11.323Z,100266.80
2019-01-19T00:46:25.608Z,100264.42
2019-01-19T00:49:23.639Z,100267.89
2019-01-19T00:52:37.568Z,100262.56
2019-01-19T00:55:58.273Z,100261.99
2019-01-19T00:58:45.923Z,100259.61
2019-01-19T01:01:32.211Z,100260.70
2019-01-19T01:04:27.674Z,100253.22
2019-01-19T01:07:57.044Z,100262.52
2019-01-19T01:10:39.974Z,100261.71
2019-01-19T01:13:40.798Z,100252.42
2019-01-19T01:16:29.449Z,100251.89
2019-01-19T01:19:45.965Z,100249.27
2019-01-19T01:22:52.509Z,100245.80
2019-01-19T01:26:08.202Z,100251.66
2019-01-19T01:29:03.554Z,100253.80
2019-01-19T01:31:48.752Z,100253.03
2019-01-19T01:34:48.680Z,100253.06
2019-01-19T01:38:08.466Z,100256.55
2019-01-19T01:41:37.191Z,100255.25
2019-01-19T01:45:00.495Z,100258.44
2019-01-19T01:48:17.612Z,100260.61
2019-01-19T01:51:08.728Z,100254.77
2019-01-19T01:54:13.750Z,100244.94
2019-01-19T01:56:46.789Z,100251.07
2019-01-19T02:00:01.171Z,100246.02
2019-01-19T02:03:01.549Z,100251.07
2019-01-19T02:06:09.856Z,100243.60
2019-01-19T02:09:22.474Z,100244.13
2019-01-19T02:12:28.735Z,100246.58
2019-01-19T02:15:41.366Z,100245.55
2019-01-19T02:18:44.335Z,100244.50
2019-01-19T02:21:50.530Z,100244.77
2019-01-19T02:25:08.235Z,100243.17
2019-01-19T02:28:11.175Z,100239.17
2019-01-19T02:31:16.576Z,100241.08
2019-01-19T02:34:12.919Z,100234.45
2019-01-19T02:37:05.392Z,100233.92
2019-01-19T02:40:06.567Z,100231.23
2019-01-19T02:43:42.181Z,100235.78
2019-01-19T02:47:12.280Z,100225.92
2019-01-19T02:50:09.446Z,100224.82
2019-01-19T02:53:15.516Z,100223.80
2019-01-19T02:56:10.423Z,100223.27
2019-01-19T02:59:21.399Z,100215.25
2019-01-19T03:02:21.110Z,100218.47
2019-01-19T03:05:21.642Z,100225.90
2019-01-19T03:08:45.454Z,100219.80
2019-01-19T03:11:59.591Z,100213.66
2019-01-19T03:14:47.426Z,100218.20
2019-01-19T03:17:56.335Z,100214.19
2019-01-19T03:20:47.445Z,100217.13
2019-01-19T03:24:08.265Z,100217.93
2019-01-19T03:27:15.351Z,100211.55
2019-01-19T03:30:44.962Z,100210.22
2019-01-19T03:33:44.062Z,100208.89
2019-01-19T03:36:54.018Z,100207.83
2019-01-19T03:40:13.482Z,100211.02
2019-01-19T03:43:26.419Z,100208.88
2019-01-19T03:46:26.730Z,100205.70
2019-01-19T22:30:22.734Z,99874.09
2019-01-19T22:32:58.861Z,99879.69
2019-01-19T22:35:32.759Z,99878.04
2019-01-19T22:38:05.794Z,99883.64
2019-01-19T22:40:39.169Z,99877.23
2019-01-19T22:43:16.560Z,99884.13
2019-01-19T22:45:51.516Z,99878.80
2019-01-19T22:48:25.582Z,99874.00
2019-01-19T22:50:58.179Z,99883.84
2019-01-19T22:53:32.901Z,99873.19
2019-01-19T22:56:06.849Z,99875.52
2019-01-19T22:58:40.022Z,99870.52
2019-01-19T23:01:38.083Z,99877.70
2019-01-19T23:04:12.052Z,99878.52
2019-01-19T23:06:45.523Z,99875.57
2019-01-19T23:09:21.302Z,99869.48
2019-01-19T23:11:55.571Z,99869.48
2019-01-19T23:14:31.109Z,99872.91
2019-01-19T23:17:06.285Z,99875.28
2019-01-19T23:19:39.551Z,99875.37
2019-01-19T23:22:15.304Z,99877.71
2019-01-19T23:24:49.695Z,99874.00
2019-01-19T23:27:35.019Z,99877.95
2019-01-19T23:30:08.835Z,99881.42
2019-01-19T23:32:42.336Z,99881.45
2019-01-19T23:35:16.181Z,99877.51
2019-01-19T23:37:49.619Z,99879.41
2019-01-19T23:40:23.377Z,99876.22
2019-01-19T23:42:56.756Z,99870.09
2019-01-19T23:45:29.805Z,99879.41
2019-01-19T23:48:04.960Z,99869.81
2019-01-19T23:50:41.333Z,99867.11
2019-01-19T23:53:14.213Z,99869.77
2019-01-19T23:55:51.075Z,99870.81
2019-01-19T23:58:24.582Z,99871.91
